Time;durP1;ratioP1;P1;durP2;ratioP2;P2;SDS_P1;SDS_P2;PMS_P1;PMS_P2;Temp;Humidity;BMP_temperature;BMP_pressure;BME280_temperature;BME280_humidity;BME280_pressure;Samples;Min_cycle;Max_cycle;Signal;HPM_P1;HPM_P2
2021/01/08 00:00:51;;;;;;;17.13;8.20;;;;;;;0.21;91.43;100522.13;5160309;27;20233;-60
2021/01/08 00:03:18;;;;;;;13.60;7.80;;;;;;;0.24;91.11;100522.34;5158402;27;20268;-60
2021/01/08 00:05:45;;;;;;;16.30;7.22;;;;;;;0.20;91.06;100526.28;5159974;27;20602;-61
2021/01/08 00:08:12;;;;;;;11.98;6.25;;;;;;;0.25;90.90;100531.72;5158701;27;20277;-59
2021/01/08 00:10:38;;;;;;;12.57;6.30;;;;;;;0.32;90.87;100531.47;5160360;27;20198;-61
2021/01/08 00:13:05;;;;;;;13.02;7.57;;;;;;;0.29;90.70;100526.16;5158834;27;20262;-60
2021/01/08 00:15:32;;;;;;;13.20;6.97;;;;;;;0.46;90.03;100530.00;5159188;27;20214;-60
2021/01/08 00:17:58;;;;;;;11.50;6.60;;;;;;;0.31;90.22;100529.69;5158381;27;20238;-60
2021/01/08 00:20:25;;;;;;;14.73;6.93;;;;;;;0.28;90.52;100534.53;5159852;27;20282;-61
2021/01/08 00:22:52;;;;;;;13.48;6.22;;;;;;;0.27;90.25;100527.69;5158755;27;20268;-61
2021/01/08 00:25:19;;;;;;;14.00;7.28;;;;;;;0.36;90.31;100525.88;5159628;27;20534;-61
2021/01/08 00:27:46;;;;;;;13.00;6.35;;;;;;;0.36;90.21;100528.41;5157951;27;20233;-60
2021/01/08 00:30:14;;;;;;;10.98;6.20;;;;;;;0.32;90.38;100526.41;5158536;27;20198;-61
2021/01/08 00:32:41;;;;;;;12.25;5.90;;;;;;;0.47;89.70;100529.25;5158177;27;20321;-60
2021/01/08 00:35:09;;;;;;;13.88;6.93;;;;;;;0.40;90.01;100535.50;5159551;27;20222;-61
2021/01/08 00:37:36;;;;;;;12.27;6.15;;;;;;;0.45;90.16;100533.31;5158120;27;20241;-61
2021/01/08 00:40:04;;;;;;;9.35;5.22;;;;;;;0.22;90.35;100534.03;5159754;27;20200;-61
2021/01/08 00:42:33;;;;;;;10.43;5.53;;;;;;;0.27;90.55;100535.31;5158452;27;20209;-61
2021/01/08 00:45:00;;;;;;;10.05;5.80;;;;;;;0.34;90.54;100535.03;5159052;27;20221;-61
2021/01/08 00:47:26;;;;;;;9.65;5.07;;;;;;;0.23;90.92;100533.28;5146430;27;20288;-60
2021/01/08 00:49:53;;;;;;;9.88;5.50;;;;;;;0.32;90.64;100531.47;5158890;27;20289;-60
2021/01/08 00:52:19;;;;;;;6.63;3.88;;;;;;;0.28;90.21;100532.00;5158208;27;20198;-60
2021/01/08 00:54:48;;;;;;;6.35;3.80;;;;;;;0.10;90.83;100534.81;5159173;27;20253;-60
2021/01/08 00:57:15;;;;;;;7.15;3.65;;;;;;;0.28;90.48;100534.53;5158526;27;20237;-60
2021/01/08 00:59:42;;;;;;;7.60;4.13;;;;;;;0.22;90.69;100529.88;5158975;27;20328;-60
2021/01/08 01:02:09;;;;;;;7.43;4.20;;;;;;;0.21;90.61;100534.81;5159442;27;20305;-60
2021/01/08 01:04:36;;;;;;;8.52;4.45;;;;;;;0.25;90.58;100536.81;5158358;27;20301;-60
2021/01/08 01:07:03;;;;;;;36.15;11.50;;;;;;;0.30;90.71;100540.59;5159787;27;20309;-61
2021/01/08 01:09:29;;;;;;;7.15;4.10;;;;;;;0.15;90.50;100537.72;5157768;27;20544;-61
2021/01/08 01:11:56;;;;;;;6.93;3.90;;;;;;;0.08;90.65;100538.00;5158875;27;20298;-60
2021/01/08 01:14:24;;;;;;;6.45;3.88;;;;;;;0.00;91.54;100542.47;5157413;27;20257;-61
2021/01/08 01:16:50;;;;;;;7.40;4.22;;;;;;;0.07;91.38;100542.22;5159150;27;20514;-60
2021/01/08 01:19:17;;;;;;;7.50;4.20;;;;;;;0.20;90.72;100545.72;5157644;27;20593;-60
2021/01/08 01:21:43;;;;;;;5.85;3.58;;;;;;;0.09;90.68;100543.22;5158755;27;20288;-61
2021/01/08 01:24:10;;;;;;;7.60;4.10;;;;;;;0.27;90.25;100548.00;5157403;27;20541;-60
2021/01/08 01:26:37;;;;;;;8.15;4.57;;;;;;;0.32;90.12;100554.31;5158534;27;20305;-59
2021/01/08 01:29:04;;;;;;;7.53;4.43;;;;;;;0.16;90.08;100548.78;5153182;27;20255;-59
2021/01/08 01:31:32;;;;;;;7.70;3.65;;;;;;;0.24;90.10;100558.78;5158556;27;20296;-60
2021/01/08 01:33:59;;;;;;;7.35;4.28;;;;;;;0.12;90.39;100552.72;5157244;27;20234;-59
2021/01/08 01:36:26;;;;;;;9.50;4.65;;;;;;;0.08;90.51;100550.69;5158787;27;20221;-57
2021/01/08 01:38:52;;;;;;;7.53;4.00;;;;;;;0.04;90.97;100552.09;5155079;27;20240;-57
2021/01/08 01:41:19;;;;;;;8.75;4.85;;;;;;;0.01;91.02;100558.56;5158236;27;20194;-54
2021/01/08 01:43:46;;;;;;;8.70;4.20;;;;;;;0.02;90.84;100565.41;5157423;27;20237;-60
2021/01/08 01:46:19;;;;;;;9.02;4.95;;;;;;;0.23;90.34;100553.56;5157963;27;20218;-55
2021/01/08 01:48:48;;;;;;;9.07;4.88;;;;;;;0.10;90.32;100556.78;5151240;27;20330;-57
2021/01/08 01:51:15;;;;;;;11.45;5.15;;;;;;;0.05;90.80;100566.53;5158447;27;20225;-57
2021/01/08 01:53:42;;;;;;;9.07;5.07;;;;;;;0.05;90.58;100565.69;5142591;27;20281;-55
2021/01/08 01:56:09;;;;;;;11.00;5.13;;;;;;;-0.06;90.72;100564.81;5157694;27;20220;-54
2021/01/08 01:58:36;;;;;;;8.38;4.57;;;;;;;-0.04;91.03;100570.88;5145228;27;20325;-58
2021/01/08 02:01:03;;;;;;;8.27;4.38;;;;;;;0.06;90.75;100575.06;5158082;27;20256;-60
2021/01/08 02:03:34;;;;;;;14.13;5.93;;;;;;;0.19;90.70;100572.75;5157219;27;20233;-60
2021/01/08 02:06:06;;;;;;;8.98;4.68;;;;;;;0.05;90.91;100576.69;5157563;27;20639;-61
2021/01/08 02:08:33;;;;;;;9.52;5.13;;;;;;;0.12;90.99;100573.88;5144030;27;20242;-61
2021/01/08 02:11:01;;;;;;;11.38;5.72;;;;;;;0.12;90.58;100573.88;5157610;27;20241;-60
2021/01/08 02:13:33;;;;;;;9.02;4.60;;;;;;;0.05;90.52;100576.69;5144542;27;20544;-60
2021/01/08 02:16:00;;;;;;;12.32;6.00;;;;;;;0.22;90.13;100574.66;5157674;27;20221;-60
2021/01/08 02:18:27;;;;;;;21.92;8.95;;;;;;;0.07;90.36;100579.38;5145472;27;20225;-61
2021/01/08 02:20:56;;;;;;;11.93;5.63;;;;;;;0.16;90.43;100584.31;5157650;27;20206;-61
2021/01/08 02:23:33;;;;;;;10.35;5.38;;;;;;;0.19;90.15;100585.44;5141589;27;20265;-61
2021/01/08 02:26:01;;;;;;;11.63;5.57;;;;;;;0.08;90.52;100587.13;5156608;27;20225;-61
2021/01/08 02:28:28;;;;;;;10.55;5.57;;;;;;;0.07;90.58;100585.34;5151925;27;20599;-61
2021/01/08 02:30:55;;;;;;;11.45;6.32;;;;;;;-0.01;90.98;100591.41;5157821;27;20198;-60
2021/01/08 02:33:23;;;;;;;12.40;5.90;;;;;;;0.03;90.44;100588.38;5153064;27;20286;-61
2021/01/08 02:35:50;;;;;;;10.30;5.50;;;;;;;0.06;90.66;100588.63;5149108;27;20532;-60
2021/01/08 02:38:20;;;;;;;11.13;5.50;;;;;;;0.16;90.28;100581.75;5120314;28;20256;-61
2021/01/08 02:40:48;;;;;;;9.88;5.45;;;;;;;0.06;90.04;100587.75;5137208;28;20234;-61
2021/01/08 02:43:20;;;;;;;11.50;5.65;;;;;;;0.04;90.49;100587.63;5135786;28;20234;-61
2021/01/08 02:45:46;;;;;;;10.90;5.50;;;;;;;0.04;90.44;100589.28;5136814;28;20530;-61
2021/01/08 02:48:13;;;;;;;9.45;5.38;;;;;;;0.01;90.47;100579.78;5134437;28;20262;-60
2021/01/08 02:50:40;;;;;;;9.57;4.80;;;;;;;0.02;90.62;100588.25;5136979;28;20207;-60
2021/01/08 02:53:10;;;;;;;11.13;5.32;;;;;;;0.01;90.47;100586.47;5135278;27;20248;-60
2021/01/08 02:55:38;;;;;;;9.98;5.30;;;;;;;0.07;90.43;100584.44;5140989;27;20220;-60
2021/01/08 02:58:05;;;;;;;8.20;4.65;;;;;;;0.29;89.64;100584.53;5139177;27;20230;-61
2021/01/08 03:00:33;;;;;;;9.90;4.60;;;;;;;0.18;90.17;100582.75;5140441;27;20638;-60
2021/01/08 03:03:01;;;;;;;11.48;5.80;;;;;;;0.19;89.67;100594.69;5130777;27;20618;-61
2021/01/08 03:05:28;;;;;;;9.38;5.03;;;;;;;0.11;89.75;100594.97;5140543;27;20222;-60
2021/01/08 03:07:55;;;;;;;9.15;5.10;;;;;;;0.19;89.73;100590.50;5133846;27;20305;-61
2021/01/08 03:10:23;;;;;;;10.43;5.65;;;;;;;0.09;90.21;100593.06;5161543;27;20626;-61
2021/01/08 03:12:56;;;;;;;9.68;5.68;;;;;;;0.15;90.09;100600.28;5160382;27;20706;-61
2021/01/08 03:15:23;;;;;;;9.77;5.28;;;;;;;0.16;89.30;100599.53;5161173;27;20301;-61
2021/01/08 03:17:50;;;;;;;10.25;5.28;;;;;;;0.13;89.89;100600.16;5160184;27;20675;-60
2021/01/08 03:20:17;;;;;;;9.50;5.00;;;;;;;0.13;89.49;100602.69;5161342;27;20276;-61
2021/01/08 03:22:43;;;;;;;8.70;4.97;;;;;;;0.00;90.22;100600.84;5161191;27;20244;-61
2021/01/08 03:25:11;;;;;;;9.32;4.93;;;;;;;0.04;90.02;100600.31;5144019;27;20268;-60
2021/01/08 03:27:37;;;;;;;11.23;5.07;;;;;;;0.13;90.09;100603.59;5161243;27;20194;-60
2021/01/08 03:30:07;;;;;;;9.57;5.22;;;;;;;0.12;89.63;100601.81;5148971;27;20306;-61
2021/01/08 03:32:33;;;;;;;10.23;5.25;;;;;;;0.17;89.60;100597.13;5161081;27;20293;-60
2021/01/08 03:35:01;;;;;;;9.40;5.00;;;;;;;0.09;89.79;100599.03;5158310;27;20726;-61
2021/01/08 03:37:28;;;;;;;11.25;5.55;;;;;;;0.08;89.82;100602.34;5160934;27;20606;-61
2021/01/08 03:39:55;;;;;;;10.57;5.28;;;;;;;0.08;89.86;100597.25;5159500;27;20336;-61
2021/01/08 03:42:21;;;;;;;10.80;5.65;;;;;;;0.05;89.79;100599.53;5160999;27;20216;-61
2021/01/08 03:44:48;;;;;;;11.60;6.25;;;;;;;0.02;90.18;100596.75;5141243;27;20600;-61
2021/01/08 03:47:14;;;;;;;10.75;5.35;;;;;;;-0.02;90.05;100599.81;5161258;27;20221;-61
2021/01/08 03:49:41;;;;;;;11.05;5.47;;;;;;;0.00;90.29;100603.38;5159107;27;20248;-61
2021/01/08 03:52:09;;;;;;;12.15;5.40;;;;;;;0.04;90.72;100599.44;5160848;27;20206;-61
2021/01/08 03:54:36;;;;;;;11.35;5.70;;;;;;;-0.01;90.30;100593.97;5133560;27;20317;-61
2021/01/08 03:57:03;;;;;;;11.85;5.65;;;;;;;0.07;90.13;100599.66;5160680;27;20241;-61
2021/01/08 03:59:30;;;;;;;12.13;5.25;;;;;;;0.02;90.66;100599.31;5146684;27;20241;-61
2021/01/08 04:01:57;;;;;;;12.98;6.45;;;;;;;-0.10;90.81;100600.84;5160610;27;20198;-61
2021/01/08 04:04:24;;;;;;;9.45;5.25;;;;;;;-0.10;90.93;100609.31;5154161;27;20252;-61
2021/01/08 04:06:50;;;;;;;14.13;6.10;;;;;;;-0.11;91.05;100599.06;5160695;27;20237;-61
2021/01/08 04:09:18;;;;;;;15.18;6.80;;;;;;;-0.15;91.07;100598.78;5159569;27;20233;-61
2021/01/08 04:11:45;;;;;;;12.30;6.25;;;;;;;-0.11;91.46;100599.06;5160305;27;20611;-60
2021/01/08 04:14:12;;;;;;;15.90;6.70;;;;;;;-0.32;91.66;100605.00;5134719;27;20544;-60
2021/01/08 04:16:41;;;;;;;16.48;7.32;;;;;;;-0.22;91.62;100601.59;5160144;27;20240;-61
2021/01/08 04:19:08;;;;;;;14.45;7.13;;;;;;;-0.24;91.62;100599.69;5132555;27;20242;-61
2021/01/08 04:21:35;;;;;;;18.30;8.25;;;;;;;-0.22;91.56;100606.66;5159359;27;20205;-61
2021/01/08 04:24:01;;;;;;;16.75;7.70;;;;;;;-0.28;91.64;100612.13;5130270;27;20241;-60
2021/01/08 04:26:29;;;;;;;16.48;7.78;;;;;;;-0.20;91.40;100605.13;5159849;27;20250;-61
2021/01/08 04:28:56;;;;;;;20.90;7.90;;;;;;;-0.25;91.23;100615.66;5158757;27;20309;-61
2021/01/08 04:31:23;;;;;;;16.25;7.63;;;;;;;-0.23;91.60;100609.97;5159183;27;20286;-61
2021/01/08 04:33:50;;;;;;;19.42;7.57;;;;;;;-0.32;91.91;100612.63;5150140;27;20581;-61
2021/01/08 04:36:17;;;;;;;19.05;8.30;;;;;;;-0.24;91.58;100613.25;5159708;27;20241;-61
2021/01/08 04:38:44;;;;;;;17.17;8.80;;;;;;;-0.44;92.14;100615.03;5157917;27;20230;-61
2021/01/08 04:41:11;;;;;;;16.85;7.90;;;;;;;-0.45;91.79;100618.31;5159764;27;20205;-60
2021/01/08 04:43:38;;;;;;;29.48;8.05;;;;;;;-0.47;92.14;100617.28;5140007;27;20388;-61
2021/01/08 04:46:08;;;;;;;18.85;7.68;;;;;;;-0.59;92.41;100618.78;5149053;27;20233;-61
2021/01/08 04:48:35;;;;;;;18.05;7.93;;;;;;;-0.58;92.38;100618.03;5153155;27;20245;-61
2021/01/08 04:51:04;;;;;;;17.88;8.63;;;;;;;-0.58;92.56;100620.56;5159721;27;20618;-61
2021/01/08 04:53:31;;;;;;;16.42;7.80;;;;;;;-0.63;92.72;100626.88;5157289;27;20260;-60
2021/01/08 04:56:00;;;;;;;18.20;7.78;;;;;;;-0.50;92.28;100624.66;5159232;27;20254;-61
2021/01/08 04:58:29;;;;;;;14.95;7.05;;;;;;;-0.66;92.48;100622.47;5157284;27;20240;-60
2021/01/08 05:00:56;;;;;;;18.40;8.07;;;;;;;-0.68;92.90;100624.88;5159339;27;20245;-61
2021/01/08 05:03:23;;;;;;;18.45;7.72;;;;;;;-0.50;92.36;100629.72;5142778;27;20321;-61
2021/01/08 05:05:50;;;;;;;18.00;8.93;;;;;;;-0.45;91.96;100627.56;5147059;27;20261;-61
2021/01/08 05:08:17;;;;;;;17.02;7.95;;;;;;;-0.47;92.07;100627.44;5142915;27;20234;-61
2021/01/08 05:10:44;;;;;;;23.10;9.00;;;;;;;-0.35;92.01;100627.59;5145437;27;20205;-61
2021/01/08 05:13:11;;;;;;;49.22;9.45;;;;;;;-0.39;91.89;100629.72;5156365;27;20583;-60
2021/01/08 05:15:39;;;;;;;18.42;7.82;;;;;;;-0.50;92.15;100629.72;5158388;27;20218;-60
2021/01/08 05:18:07;;;;;;;21.42;8.32;;;;;;;-0.37;91.96;100635.84;5157569;27;20226;-60
2021/01/08 05:20:33;;;;;;;22.33;8.50;;;;;;;-0.39;92.47;100629.72;5159206;27;20240;-60
2021/01/08 05:23:00;;;;;;;27.40;10.57;;;;;;;-0.36;92.39;100633.41;5152697;27;20224;-61
2021/01/08 05:25:27;;;;;;;32.50;9.60;;;;;;;-0.32;92.36;100634.53;5158394;27;20221;-61
2021/01/08 05:27:54;;;;;;;23.48;9.55;;;;;;;-0.30;92.10;100638.13;5149675;27;20611;-61
2021/01/08 05:30:24;;;;;;;35.53;10.68;;;;;;;-0.33;92.07;100643.81;5158767;27;20286;-60
2021/01/08 05:32:57;;;;;;;20.85;8.70;;;;;;;-0.21;92.02;100638.88;5153574;27;20263;-63
2021/01/08 05:35:26;;;;;;;24.02;10.95;;;;;;;-0.23;92.12;100642.03;5158314;27;20652;-60
2021/01/08 05:37:53;;;;;;;25.17;9.73;;;;;;;-0.31;92.09;100642.28;5157847;27;20293;-60
2021/01/08 05:40:25;;;;;;;29.55;10.82;;;;;;;-0.28;91.94;100637.50;5158416;27;20226;-60
2021/01/08 05:42:58;;;;;;;24.52;11.15;;;;;;;-0.31;92.31;100649.03;5151829;27;20202;-61
2021/01/08 05:45:25;;;;;;;22.08;9.85;;;;;;;-0.37;92.43;100651.03;5156042;27;20229;-60
2021/01/08 05:47:53;;;;;;;19.58;8.95;;;;;;;-0.35;92.32;100652.06;5158793;27;20206;-61
2021/01/08 05:50:21;;;;;;;25.35;10.68;;;;;;;-0.34;92.75;100652.19;5116992;27;20256;-60
2021/01/08 05:52:53;;;;;;;23.45;10.05;;;;;;;-0.22;92.14;100652.31;5154465;27;20236;-62
2021/01/08 05:55:21;;;;;;;21.55;10.00;;;;;;;-0.29;92.23;100658.50;5158198;27;20681;-60
2021/01/08 05:57:50;;;;;;;22.42;10.35;;;;;;;-0.47;92.66;100652.78;5157266;27;20244;-61
2021/01/08 06:00:19;;;;;;;21.65;10.48;;;;;;;-0.35;92.83;100652.06;5158251;27;20298;-60
2021/01/08 06:02:47;;;;;;;26.98;10.85;;;;;;;-0.33;92.48;100655.59;5158129;27;20198;-60
2021/01/08 06:05:15;;;;;;;28.40;11.52;;;;;;;-0.32;92.52;100659.91;5135599;27;20238;-60
2021/01/08 06:07:48;;;;;;;23.38;9.30;;;;;;;-0.21;92.47;100659.16;5158316;27;20312;-60
2021/01/08 06:10:18;;;;;;;26.02;10.05;;;;;;;-0.21;91.90;100658.28;5158059;27;20230;-60
2021/01/08 06:12:47;;;;;;;25.15;11.40;;;;;;;-0.17;91.93;100666.28;5158304;27;20198;-60
2021/01/08 06:15:15;;;;;;;27.50;11.52;;;;;;;-0.26;92.09;100659.53;5151711;27;20251;-60
2021/01/08 06:17:45;;;;;;;23.05;10.27;;;;;;;-0.14;91.94;100663.97;5158197;27;20292;-61
2021/01/08 06:20:13;;;;;;;21.25;9.75;;;;;;;-0.14;91.93;100656.38;5154073;27;20248;-61
2021/01/08 06:22:41;;;;;;;23.73;10.50;;;;;;;-0.20;92.18;100666.00;5158235;27;20226;-60
2021/01/08 06:25:08;;;;;;;24.67;10.45;;;;;;;-0.11;91.97;100657.41;5154173;27;20233;-60
2021/01/08 06:27:36;;;;;;;27.88;12.27;;;;;;;-0.18;91.57;100669.56;5157092;27;20221;-60
2021/01/08 06:30:06;;;;;;;22.27;10.02;;;;;;;-0.22;91.90;100667.53;5117187;27;20288;-60
2021/01/08 06:32:33;;;;;;;21.85;10.50;;;;;;;-0.08;92.00;100667.78;5157257;27;20193;-61
2021/01/08 06:35:08;;;;;;;23.23;8.27;;;;;;;0.14;91.52;100665.38;5152870;27;20653;-60
2021/01/08 06:37:40;;;;;;;27.08;11.40;;;;;;;-0.07;91.34;100661.94;5137212;28;20278;-60
2021/01/08 06:40:10;;;;;;;25.73;10.70;;;;;;;-0.12;91.87;100659.03;5131333;28;20287;-60
2021/01/08 06:42:44;;;;;;;21.17;9.93;;;;;;;-0.18;91.95;100661.06;5136943;28;20237;-60
2021/01/08 06:45:13;;;;;;;22.00;11.20;;;;;;;-0.21;92.44;100664.22;5133211;28;20231;-61
2021/01/08 06:47:45;;;;;;;22.35;10.27;;;;;;;-0.09;92.05;100663.47;5136983;28;20254;-60
2021/01/08 06:50:18;;;;;;;27.30;10.80;;;;;;;-0.18;92.04;100668.66;5115903;28;20244;-60
2021/01/08 06:52:46;;;;;;;26.10;11.88;;;;;;;-0.20;92.34;100675.28;5136836;28;20226;-61
2021/01/08 06:55:14;;;;;;;24.95;10.25;;;;;;;-0.21;92.16;100678.56;5126559;28;20234;-61
2021/01/08 06:57:50;;;;;;;19.63;9.25;;;;;;;-0.19;92.06;100677.03;5137093;28;20282;-60
2021/01/08 07:00:27;;;;;;;26.45;10.50;;;;;;;-0.20;92.39;100680.34;5128968;28;20234;-60
2021/01/08 07:02:56;;;;;;;26.27;11.30;;;;;;;-0.06;91.99;100684.91;5131706;28;20285;-60
2021/01/08 07:05:23;;;;;;;24.80;11.43;;;;;;;-0.21;92.37;100693.78;5136263;28;20223;-61
2021/01/08 07:07:50;;;;;;;29.65;12.25;;;;;;;0.19;90.88;100686.03;5136933;28;20250;-61
2021/01/08 07:10:17;;;;;;;24.38;11.00;;;;;;;-0.05;91.28;100701.03;5121182;28;20583;-61
2021/01/08 07:12:45;;;;;;;21.30;10.85;;;;;;;-0.08;91.67;100698.22;5136765;28;20236;-60
2021/01/08 07:15:12;;;;;;;27.95;11.30;;;;;;;0.03;91.64;100700.00;5135214;28;20238;-60
2021/01/08 07:17:39;;;;;;;25.90;11.88;;;;;;;-0.09;92.05;100701.53;5149257;27;20233;-60
2021/01/08 07:20:08;;;;;;;28.02;11.77;;;;;;;-0.01;92.14;100708.13;5140874;27;20229;-61
2021/01/08 07:22:39;;;;;;;22.92;11.45;;;;;;;0.02;92.10;100708.41;5157591;27;20199;-61
2021/01/08 07:25:11;;;;;;;24.40;11.68;;;;;;;0.01;91.64;100708.25;5155065;27;20339;-60
2021/01/08 07:27:41;;;;;;;28.60;11.50;;;;;;;0.00;91.60;100715.00;5157235;27;20267;-61
2021/01/08 07:30:10;;;;;;;29.00;11.65;;;;;;;-0.12;92.09;100721.59;5153100;27;20241;-60
2021/01/08 07:32:38;;;;;;;28.95;11.63;;;;;;;-0.21;92.40;100719.16;5157029;27;20281;-61
2021/01/08 07:35:17;;;;;;;30.77;11.73;;;;;;;-0.18;92.28;100730.44;5144087;27;20230;-60
2021/01/08 07:38:04;;;;;;;26.23;11.70;;;;;;;0.05;92.02;100728.94;5157443;27;20200;-60
2021/01/08 07:40:32;;;;;;;21.92;10.80;;;;;;;0.17;91.13;100738.34;5160482;27;20230;-60
2021/01/08 07:43:00;;;;;;;25.75;12.25;;;;;;;0.08;91.37;100734.28;5151011;27;20198;-61
2021/01/08 07:45:48;;;;;;;23.08;10.55;;;;;;;-0.02;91.38;100736.78;5160403;27;20222;-60
2021/01/08 07:48:23;;;;;;;21.33;11.20;;;;;;;-0.02;91.69;100742.78;5159543;27;20226;-60
2021/01/08 07:50:54;;;;;;;29.67;11.25;;;;;;;0.10;91.58;100750.50;5160820;27;20220;-60
2021/01/08 07:53:46;;;;;;;37.60;12.30;;;;;;;0.09;92.00;100743.66;5158334;27;20233;-60
2021/01/08 07:56:13;;;;;;;30.60;12.00;;;;;;;-0.04;92.09;100753.53;5160524;27;20226;-60
2021/01/08 07:58:41;;;;;;;31.73;12.25;;;;;;;-0.01;92.52;100753.78;5159473;27;20317;-60
2021/01/08 08:01:10;;;;;;;30.08;12.90;;;;;;;0.03;91.79;100755.84;5160396;27;20202;-61
2021/01/08 08:03:37;;;;;;;24.38;11.45;;;;;;;-0.02;91.77;100758.00;5158765;27;20245;-60
2021/01/08 08:06:05;;;;;;;25.33;12.45;;;;;;;-0.01;91.96;100758.88;5160054;27;20619;-60
2021/01/08 08:08:32;;;;;;;73.32;27.42;;;;;;;0.11;92.93;100759.91;5145621;27;20252;-60
2021/01/08 08:11:09;;;;;;;38.25;16.92;;;;;;;0.09;92.10;100760.53;5160103;27;20330;-61
2021/01/08 08:13:36;;;;;;;30.00;13.50;;;;;;;-0.01;92.14;100766.47;5158527;27;20241;-60
2021/01/08 08:16:04;;;;;;;33.08;13.90;;;;;;;0.08;92.39;100771.44;5160139;27;20214;-61
2021/01/08 08:18:33;;;;;;;34.60;14.45;;;;;;;0.12;91.88;100768.41;5139618;27;20249;-60
2021/01/08 08:21:16;;;;;;;39.53;16.40;;;;;;;0.20;91.99;100766.53;5159800;27;20247;-60
2021/01/08 08:23:44;;;;;;;32.38;13.85;;;;;;;0.26;91.24;100775.53;5153707;27;20558;-60
2021/01/08 08:26:11;;;;;;;32.60;12.90;;;;;;;0.04;91.77;100775.38;5158962;27;20320;-60
2021/01/08 08:28:38;;;;;;;29.20;13.48;;;;;;;0.17;91.74;100778.94;5150557;27;20706;-60
2021/01/08 08:31:05;;;;;;;29.05;13.27;;;;;;;0.01;92.07;100775.13;5159993;27;20202;-60
2021/01/08 08:33:32;;;;;;;33.13;13.90;;;;;;;0.15;92.02;100780.47;5157862;27;20566;-60
2021/01/08 08:35:59;;;;;;;29.50;13.43;;;;;;;0.04;92.12;100782.09;5159279;27;20206;-60
2021/01/08 08:38:25;;;;;;;33.80;13.82;;;;;;;0.06;92.27;100786.53;5158618;27;20245;-60
2021/01/08 08:40:52;;;;;;;27.05;13.13;;;;;;;0.22;91.54;100790.38;5159950;27;20223;-61
2021/01/08 08:43:21;;;;;;;26.75;13.48;;;;;;;0.19;91.48;100788.47;5157762;27;20325;-60
2021/01/08 08:45:48;;;;;;;32.80;13.75;;;;;;;0.05;91.82;100794.03;5159707;27;20218;-61
2021/01/08 08:48:19;;;;;;;33.08;14.32;;;;;;;0.28;91.46;100795.97;5158193;27;20304;-61
2021/01/08 08:50:48;;;;;;;31.02;14.00;;;;;;;0.17;91.45;100800.16;5158982;27;20588;-60
2021/01/08 08:53:15;;;;;;;28.17;13.77;;;;;;;0.24;91.26;100797.34;5157798;27;20226;-60
2021/01/08 08:55:42;;;;;;;33.67;14.02;;;;;;;0.14;91.43;100799.88;5159644;27;20314;-61
2021/01/08 08:58:10;;;;;;;34.88;14.85;;;;;;;0.17;91.33;100801.78;5158162;27;20301;-61
2021/01/08 09:00:38;;;;;;;31.67;13.15;;;;;;;0.30;91.03;100802.03;5159423;27;20257;-60
2021/01/08 09:03:19;;;;;;;29.52;12.60;;;;;;;0.30;91.44;100807.13;5153976;27;20194;-61
2021/01/08 09:05:47;;;;;;;25.42;11.02;;;;;;;0.06;91.48;100811.91;5159126;27;20638;-60
2021/01/08 09:08:20;;;;;;;29.17;12.68;;;;;;;0.25;91.39;100803.31;5148382;27;20313;-58
2021/01/08 09:10:52;;;;;;;23.92;12.18;;;;;;;0.42;90.23;100816.53;5159438;27;20292;-59
2021/01/08 09:13:23;;;;;;;29.52;13.30;;;;;;;0.22;90.32;100813.22;5158111;27;20232;-60
2021/01/08 09:15:56;;;;;;;32.17;11.85;;;;;;;0.27;90.76;100819.56;5159001;27;20358;-60
2021/01/08 09:18:34;;;;;;;28.42;13.05;;;;;;;0.23;90.28;100815.00;5156536;27;20236;-62
2021/01/08 09:21:07;;;;;;;28.00;11.77;;;;;;;0.02;91.37;100819.13;5158940;27;20224;-60
2021/01/08 09:23:36;;;;;;;29.88;12.23;;;;;;;0.34;90.76;100828.56;5126357;27;20266;-60
2021/01/08 09:26:05;;;;;;;29.30;13.77;;;;;;;0.16;91.04;100822.84;5158030;27;20263;-60
2021/01/08 09:28:42;;;;;;;28.80;13.10;;;;;;;0.25;90.91;100823.59;5141898;27;20257;-65
2021/01/08 09:31:08;;;;;;;29.75;13.27;;;;;;;0.05;91.10;100829.56;5158022;27;20208;-60
2021/01/08 09:33:36;;;;;;;31.63;13.13;;;;;;;-0.02;91.52;100830.66;5157273;27;20234;-59
2021/01/08 09:36:05;;;;;;;32.70;13.48;;;;;;;0.07;91.09;100830.56;5158745;27;20495;-60
2021/01/08 09:38:32;;;;;;;26.17;12.07;;;;;;;0.18;90.43;100836.53;5156701;27;20242;-59
2021/01/08 09:40:58;;;;;;;30.33;13.63;;;;;;;0.03;90.85;100831.06;5158767;27;20202;-60
2021/01/08 09:43:25;;;;;;;24.45;11.75;;;;;;;0.25;90.62;100829.59;5156627;27;20230;-60
2021/01/08 09:46:05;;;;;;;27.75;13.32;;;;;;;0.04;90.86;100828.66;5158121;27;20218;-60
2021/01/08 09:48:32;;;;;;;30.23;12.85;;;;;;;0.22;90.83;100830.97;5156948;27;20241;-60
2021/01/08 09:51:00;;;;;;;25.92;12.00;;;;;;;0.17;90.52;100837.31;5158600;27;20198;-60
2021/01/08 09:53:27;;;;;;;27.85;13.18;;;;;;;0.12;90.49;100831.84;5155004;27;20232;-60
2021/01/08 09:55:54;;;;;;;28.20;12.02;;;;;;;-0.09;91.02;100830.91;5158048;27;20218;-61
2021/01/08 09:58:21;;;;;;;27.67;11.57;;;;;;;-0.23;91.79;100837.31;5153774;27;20317;-60
2021/01/08 10:00:50;;;;;;;27.35;12.23;;;;;;;-0.20;91.98;100828.31;5158316;27;20237;-60
2021/01/08 10:03:18;;;;;;;29.33;11.80;;;;;;;-0.15;92.09;100838.88;5153399;27;20317;-60
2021/01/08 10:05:45;;;;;;;25.58;11.77;;;;;;;0.04;91.55;100832.84;5157827;27;20662;-60
2021/01/08 10:08:18;;;;;;;24.33;11.65;;;;;;;-0.10;91.78;100844.34;5137704;27;20247;-60
2021/01/08 10:10:46;;;;;;;24.52;11.05;;;;;;;0.04;91.38;100837.94;5157550;27;20234;-60
2021/01/08 10:13:15;;;;;;;27.90;11.70;;;;;;;0.00;91.15;100834.25;5156095;27;20256;-60
2021/01/08 10:15:43;;;;;;;26.42;11.82;;;;;;;-0.06;91.66;100832.06;5157738;27;20763;-60
2021/01/08 10:18:11;;;;;;;28.60;11.65;;;;;;;-0.02;91.37;100833.19;5152109;27;20200;-60
2021/01/08 10:20:44;;;;;;;24.67;12.80;;;;;;;-0.11;92.16;100834.97;5157890;27;20595;-60
2021/01/08 10:23:11;;;;;;;23.85;11.07;;;;;;;-0.04;91.55;100832.19;5153818;27;20224;-60
2021/01/08 10:25:38;;;;;;;35.35;12.90;;;;;;;-0.12;91.37;100836.59;5157303;27;20316;-60
2021/01/08 10:28:14;;;;;;;27.00;11.88;;;;;;;-0.12;91.82;100836.59;5157394;27;20218;-61
2021/01/08 10:30:42;;;;;;;23.83;11.45;;;;;;;0.06;91.83;100844.88;5129249;27;20282;-60
2021/01/08 10:33:09;;;;;;;29.00;12.27;;;;;;;0.01;91.51;100848.69;5156856;27;20193;-61
2021/01/08 10:35:36;;;;;;;31.17;11.55;;;;;;;-0.06;91.54;100846.41;5157222;27;20304;-59
2021/01/08 10:38:04;;;;;;;28.58;13.57;;;;;;;-0.08;91.99;100842.81;5155829;27;20194;-60
2021/01/08 10:40:31;;;;;;;24.55;11.93;;;;;;;-0.02;91.99;100840.81;5157885;27;20234;-60
2021/01/08 10:42:58;;;;;;;27.60;12.90;;;;;;;-0.06;91.95;100843.88;5156200;27;20285;-61
2021/01/08 10:45:25;;;;;;;23.73;11.60;;;;;;;-0.09;91.75;100844.50;5157292;27;20538;-60
2021/01/08 10:47:52;;;;;;;25.60;11.88;;;;;;;-0.07;91.62;100839.53;5157723;27;20228;-60
2021/01/08 10:50:20;;;;;;;24.85;11.85;;;;;;;-0.02;91.37;100849.31;5135849;27;20256;-60
2021/01/08 10:52:47;;;;;;;26.25;12.05;;;;;;;-0.09;91.24;100841.94;5157726;27;20202;-61
2021/01/08 10:55:24;;;;;;;23.55;11.88;;;;;;;0.07;91.00;100844.16;5139601;27;20324;-60
2021/01/08 10:57:51;;;;;;;19.98;10.45;;;;;;;0.05;91.16;100853.25;5157893;27;20231;-60
2021/01/08 11:00:20;;;;;;;23.70;10.80;;;;;;;-0.02;91.30;100854.41;5140650;27;20273;-60
2021/01/08 11:02:50;;;;;;;23.15;11.07;;;;;;;-0.05;91.50;100846.50;5157521;27;20592;-60
2021/01/08 11:05:18;;;;;;;27.27;11.77;;;;;;;-0.01;91.89;100845.13;5149256;27;20260;-59
2021/01/08 11:07:45;;;;;;;23.95;10.65;;;;;;;0.02;91.84;100842.88;5157767;27;20217;-61
2021/01/08 11:10:12;;;;;;;28.70;11.68;;;;;;;-0.09;91.69;100847.03;5156078;27;20241;-60
2021/01/08 11:12:39;;;;;;;19.80;9.30;;;;;;;-0.01;91.10;100842.59;5157469;27;20197;-60
2021/01/08 11:15:07;;;;;;;25.60;11.35;;;;;;;-0.14;91.91;100841.53;5136451;27;20238;-61
2021/01/08 11:17:34;;;;;;;26.85;12.73;;;;;;;0.11;91.49;100841.09;5161399;27;20202;-60
2021/01/08 11:20:02;;;;;;;25.80;11.90;;;;;;;0.02;91.57;100845.41;5157127;27;20576;-61
2021/01/08 11:22:29;;;;;;;23.13;10.95;;;;;;;-0.12;91.58;100850.94;5160883;27;20241;-61
2021/01/08 11:24:55;;;;;;;26.30;11.30;;;;;;;0.01;91.69;100843.63;5158890;27;20261;-60